createdAt,value
2022-11-27T00:03:12.519Z,89.08
2022-11-27T00:08:15.845Z,89.08
2022-11-27T00:13:19.769Z,89.18
2022-11-27T00:18:22.980Z,89.21
2022-11-27T00:23:26.185Z,89.22
2022-11-27T00:28:30.212Z,89.17
2022-11-27T00:33:33.626Z,89.07
2022-11-27T00:38:39.233Z,89.12
2022-11-27T00:43:45.045Z,89.25
2022-11-27T00:48:49.087Z,89.30
2022-11-27T00:53:53.273Z,89.14
2022-11-27T00:58:57.142Z,89.32
2022-11-27T01:04:01.679Z,89.36
2022-11-27T01:09:05.708Z,89.43
2022-11-27T01:14:14.442Z,89.31
2022-11-27T01:19:17.548Z,89.46
2022-11-27T01:24:21.216Z,89.64
2022-11-27T01:29:24.375Z,89.63
2022-11-27T01:34:27.479Z,89.48
2022-11-27T01:39:30.686Z,89.20
2022-11-27T01:44:33.846Z,89.36
2022-11-27T01:49:44.476Z,89.48
2022-11-27T01:54:53.317Z,89.47
2022-11-27T02:00:00.209Z,89.58
2022-11-27T02:05:03.932Z,89.69
2022-11-27T02:10:07.912Z,89.73
2022-11-27T02:15:26.833Z,89.70
2022-11-27T02:20:47.552Z,89.74
2022-11-27T02:26:28.547Z,89.72
2022-11-27T02:31:38.515Z,89.80
2022-11-27T02:36:49.094Z,89.89
2022-11-27T02:41:59.877Z,89.91
2022-11-27T02:47:05.337Z,89.94
2022-11-27T02:52:12.130Z,89.99
2022-11-27T02:57:16.568Z,89.97
2022-11-27T03:02:27.519Z,89.97
2022-11-27T03:07:39.738Z,90.00
2022-11-27T03:12:43.084Z,90.10
2022-11-27T03:17:55.304Z,90.14
2022-11-27T03:22:59.125Z,90.13
2022-11-27T03:28:06.386Z,90.05
2022-11-27T03:33:09.842Z,90.04
2022-11-27T03:38:13.051Z,90.08
2022-11-27T03:43:28.033Z,90.25
2022-11-27T03:48:43.634Z,90.33
2022-11-27T03:54:19.609Z,90.48
2022-11-27T03:59:28.962Z,90.56
2022-11-27T04:04:32.477Z,90.68
2022-11-27T04:09:35.786Z,90.71
2022-11-27T04:14:39.171Z,90.75
2022-11-27T04:19:42.720Z,90.77
2022-11-27T04:24:46.133Z,90.72
2022-11-27T04:29:49.333Z,90.33
2022-11-27T04:34:52.953Z,90.41
2022-11-27T04:39:56.236Z,90.61
2022-11-27T04:44:59.471Z,90.63
2022-11-27T04:50:03.597Z,90.70
2022-11-27T04:55:07.595Z,90.65
2022-11-27T05:00:11.659Z,90.63
2022-11-27T05:05:15.070Z,90.67
2022-11-27T05:10:18.482Z,90.58
2022-11-27T05:15:21.378Z,90.55
2022-11-27T05:20:24.688Z,90.47
2022-11-27T05:25:27.894Z,90.52
2022-11-27T05:30:31.745Z,90.53
2022-11-27T05:35:34.979Z,90.35
2022-11-27T05:40:39.163Z,90.51
2022-11-27T05:45:42.363Z,90.61
2022-11-27T05:50:45.570Z,90.66
2022-11-27T05:55:48.883Z,90.70
2022-11-27T06:00:52.605Z,90.78
2022-11-27T06:05:55.607Z,90.78
2022-11-27T06:10:58.813Z,90.75
2022-11-27T06:16:09.235Z,90.82
2022-11-27T06:21:14.956Z,90.85
2022-11-27T06:26:20.591Z,90.75
2022-11-27T06:31:27.540Z,90.93
2022-11-27T06:36:33.949Z,90.94
2022-11-27T06:41:37.005Z,90.97
2022-11-27T06:46:40.519Z,90.94
2022-11-27T06:51:43.623Z,91.02
2022-11-27T06:56:50.725Z,91.07
2022-11-27T07:01:54.047Z,91.07
2022-11-27T07:06:57.651Z,91.00
2022-11-27T07:12:00.857Z,91.03
2022-11-27T07:17:04.270Z,91.01
2022-11-27T07:22:07.272Z,90.77
2022-11-27T07:27:10.992Z,90.57
2022-11-27T07:32:14.814Z,90.64
2022-11-27T07:37:17.920Z,90.51
2022-11-27T07:42:37.664Z,90.64
2022-11-27T07:47:41.539Z,90.66
2022-11-27T07:52:44.746Z,90.56
2022-11-27T07:57:47.957Z,90.54
2022-11-27T08:02:51.572Z,90.40
2022-11-27T08:07:55.291Z,90.20
2022-11-27T08:12:59.593Z,90.17
2022-11-27T08:18:04.320Z,89.93
2022-11-27T08:23:07.941Z,89.85
2022-11-27T08:28:11.612Z,89.82
2022-11-27T08:33:15.016Z,89.67
2022-11-27T08:38:18.633Z,89.58
2022-11-27T08:43:22.666Z,89.47
2022-11-27T08:48:26.180Z,89.37
2022-11-27T08:53:29.591Z,89.17
2022-11-27T08:58:33.105Z,89.10
2022-11-27T09:03:36.467Z,89.16
2022-11-27T09:08:41.670Z,89.06
2022-11-27T09:13:45.597Z,88.99
2022-11-27T09:18:51.773Z,88.83
2022-11-27T09:23:57.050Z,88.73
2022-11-27T09:29:00.748Z,88.62
2022-11-27T09:34:05.286Z,88.36
2022-11-27T09:39:08.595Z,88.33
2022-11-27T09:44:27.063Z,88.21
2022-11-27T09:49:48.087Z,88.17
2022-11-27T09:55:12.081Z,87.98
2022-11-27T10:00:19.001Z,87.70
2022-11-27T10:05:33.243Z,87.34
2022-11-27T10:10:49.969Z,87.09
2022-11-27T10:16:23.948Z,86.83
2022-11-27T10:21:58.745Z,86.74
2022-11-27T10:27:10.556Z,86.54
2022-11-27T10:32:53.973Z,86.25
2022-11-27T10:38:24.556Z,86.20
2022-11-27T10:43:27.663Z,86.52
2022-11-27T10:48:33.140Z,86.44
2022-11-27T10:53:39.844Z,86.53
2022-11-27T10:59:03.293Z,86.62
2022-11-27T11:04:24.717Z,86.74
2022-11-27T11:09:35.205Z,86.80
2022-11-27T11:14:38.876Z,86.90
2022-11-27T11:19:44.288Z,86.84
2022-11-27T11:24:52.960Z,86.95
2022-11-27T11:29:59.674Z,87.04
2022-11-27T11:35:35.003Z,87.03
2022-11-27T11:40:38.795Z,87.07
2022-11-27T11:45:49.123Z,87.17
2022-11-27T11:50:58.315Z,87.09
2022-11-27T11:56:32.756Z,87.16
2022-11-27T12:01:43.744Z,87.26
2022-11-27T12:07:02.629Z,87.29
2022-11-27T12:12:19.346Z,87.37
2022-11-27T12:17:36.584Z,87.28
2022-11-27T12:22:49.012Z,87.23
2022-11-27T12:28:00.178Z,87.40
2022-11-27T12:33:19.485Z,87.46
2022-11-27T12:38:49.418Z,87.52
2022-11-27T12:44:01.336Z,87.52
2022-11-27T12:49:19.730Z,87.51
2022-11-27T12:54:30.922Z,87.50
2022-11-27T12:59:43.879Z,87.52
2022-11-27T13:04:57.599Z,87.70
2022-11-27T13:10:12.732Z,87.80
2022-11-27T13:15:32.124Z,87.89
2022-11-27T13:20:38.496Z,87.85
2022-11-27T13:25:47.373Z,87.90
2022-11-27T13:30:53.539Z,88.03
2022-11-27T13:35:58.001Z,88.21
2022-11-27T13:41:06.013Z,88.24
2022-11-27T13:46:21.089Z,88.43
2022-11-27T13:51:33.432Z,88.29
2022-11-27T13:56:37.240Z,88.07
2022-11-27T14:01:40.763Z,88.37
2022-11-27T14:06:44.578Z,88.58
2022-11-27T14:11:48.487Z,88.59
2022-11-27T14:17:05.392Z,88.71
2022-11-27T14:22:17.652Z,88.84
2022-11-27T14:27:24.446Z,88.94
2022-11-27T14:32:36.051Z,88.94
2022-11-27T14:37:40.185Z,88.93
2022-11-27T14:42:43.693Z,89.00
2022-11-27T14:47:52.741Z,89.04
2022-11-27T14:52:57.487Z,89.11
2022-11-27T14:58:01.815Z,88.98
2022-11-27T15:03:10.877Z,88.83
2022-11-27T15:08:15.931Z,89.07
2022-11-27T15:13:25.505Z,89.35
2022-11-27T15:18:31.484Z,89.53
2022-11-27T15:23:36.085Z,89.69
2022-11-27T15:28:50.223Z,89.86
2022-11-27T15:34:21.852Z,89.81
2022-11-27T15:39:26.569Z,89.90
2022-11-27T15:44:32.690Z,89.87
2022-11-27T15:49:36.258Z,89.92
2022-11-27T15:54:40.576Z,89.78
2022-11-27T15:59:44.212Z,89.83
2022-11-27T16:04:47.415Z,89.69
2022-11-27T16:09:50.932Z,89.78
2022-11-27T16:14:54.344Z,89.99
2022-11-27T16:19:58.478Z,89.61
2022-11-27T16:25:01.999Z,89.88
2022-11-27T16:30:07.020Z,90.05
2022-11-27T16:35:11.579Z,89.87
2022-11-27T16:40:17.549Z,90.13
2022-11-27T16:45:21.943Z,90.40
2022-11-27T16:50:27.092Z,90.58
2022-11-27T16:55:33.221Z,90.57
2022-11-27T17:00:36.973Z,90.68
2022-11-27T17:05:41.888Z,90.85
2022-11-27T17:10:46.634Z,90.77
2022-11-27T17:15:51.444Z,90.37
2022-11-27T17:21:02.817Z,90.45
2022-11-27T17:26:09.232Z,90.53
2022-11-27T17:31:17.529Z,90.56
2022-11-27T17:36:21.202Z,90.57
2022-11-27T17:41:28.098Z,90.66
2022-11-27T17:46:34.270Z,90.77
2022-11-27T17:51:37.796Z,90.78
2022-11-27T17:56:43.469Z,90.64
2022-11-27T18:01:50.295Z,90.77
2022-11-27T18:06:54.848Z,90.69
2022-11-27T18:12:00.050Z,90.63
2022-11-27T18:17:05.908Z,90.74
2022-11-27T18:22:13.446Z,90.88
2022-11-27T18:27:18.723Z,90.93
2022-11-27T18:32:23.346Z,90.96
2022-11-27T18:37:26.631Z,90.90
2022-11-27T18:42:32.809Z,90.76
2022-11-27T18:47:36.338Z,90.73
2022-11-27T18:52:40.450Z,90.81
2022-11-27T18:57:45.345Z,90.91
2022-11-27T19:02:49.791Z,90.95
2022-11-27T19:07:53.700Z,90.88
2022-11-27T19:12:58.502Z,90.97
2022-11-27T19:18:02.121Z,91.00
2022-11-27T19:23:06.763Z,91.08
2022-11-27T19:28:11.890Z,91.11
2022-11-27T19:33:16.868Z,90.92
2022-11-27T19:38:20.279Z,90.93
2022-11-27T19:43:23.903Z,91.00
2022-11-27T19:48:27.617Z,90.97
2022-11-27T19:53:33.104Z,91.04
2022-11-27T19:58:37.524Z,91.08
2022-11-27T20:03:42.138Z,91.09
2022-11-27T20:08:48.201Z,91.13
2022-11-27T20:13:52.054Z,91.19
2022-11-27T20:18:56.319Z,91.20
2022-11-27T20:23:59.702Z,91.20
2022-11-27T20:29:04.488Z,91.17
2022-11-27T20:34:09.184Z,91.15
2022-11-27T20:39:17.669Z,91.12
2022-11-27T20:44:25.033Z,91.06
2022-11-27T20:49:28.245Z,91.08
2022-11-27T20:54:31.847Z,91.11
2022-11-27T20:59:35.158Z,91.05
2022-11-27T21:04:38.978Z,91.05
2022-11-27T21:09:42.720Z,91.06
2022-11-27T21:14:48.203Z,91.10
2022-11-27T21:19:52.290Z,91.26
2022-11-27T21:24:55.805Z,91.53
2022-11-27T21:29:59.834Z,91.62
2022-11-27T21:35:05.405Z,91.73
2022-11-27T21:40:10.355Z,91.90
2022-11-27T21:45:14.677Z,92.02
2022-11-27T21:50:18.195Z,92.15
2022-11-27T21:55:21.508Z,92.24
2022-11-27T22:00:25.323Z,92.37
2022-11-27T22:05:29.252Z,92.48
2022-11-27T22:10:32.970Z,92.69
2022-11-27T22:15:37.304Z,92.83
2022-11-27T22:20:41.490Z,92.99
2022-11-27T22:25:44.640Z,93.18
2022-11-27T22:30:48.176Z,93.32
2022-11-27T22:35:51.676Z,93.39
2022-11-27T22:40:58.962Z,93.45
2022-11-27T22:46:06.138Z,93.53
2022-11-27T22:51:10.252Z,93.55
2022-11-27T22:56:13.619Z,93.59
2022-11-27T23:01:18.154Z,93.58
2022-11-27T23:06:23.814Z,93.58
2022-11-27T23:11:28.666Z,93.57
2022-11-27T23:16:32.420Z,93.56
2022-11-27T23:21:37.789Z,93.54
2022-11-27T23:26:41.569Z,93.36
2022-11-27T23:31:44.823Z,93.31
2022-11-27T23:36:48.088Z,93.21
2022-11-27T23:41:51.397Z,93.07
2022-11-27T23:46:55.424Z,92.92
2022-11-27T23:51:59.249Z,92.88
2022-11-27T23:57:03.583Z,92.74
